sensor_id;sensor_type;location;lat;lon;timestamp;P1;durP1;ratioP1;P2;durP2;ratioP2
10904;SDS011;5505;51.450;9.254;2022-11-28T00:00:36;4.90;;;4.00;;
10904;SDS011;5505;51.450;9.254;2022-11-28T00:03:24;4.53;;;3.57;;
10904;SDS011;5505;51.450;9.254;2022-11-28T00:06:11;4.67;;;4.17;;
10904;SDS011;5505;51.450;9.254;2022-11-28T00:08:58;4.90;;;3.60;;
10904;SDS011;5505;51.450;9.254;2022-11-28T00:11:46;4.40;;;3.70;;
10904;SDS011;5505;51.450;9.254;2022-11-28T00:14:34;4.43;;;3.60;;
10904;SDS011;5505;51.450;9.254;2022-11-28T00:17:21;4.23;;;3.70;;
10904;SDS011;5505;51.450;9.254;2022-11-28T00:20:09;4.50;;;3.50;;
10904;SDS011;5505;51.450;9.254;2022-11-28T00:22:56;4.60;;;3.90;;
10904;SDS011;5505;51.450;9.254;2022-11-28T00:25:43;5.00;;;3.60;;
10904;SDS011;5505;51.450;9.254;2022-11-28T00:28:30;4.07;;;3.67;;
10904;SDS011;5505;51.450;9.254;2022-11-28T00:31:18;3.57;;;3.27;;
10904;SDS011;5505;51.450;9.254;2022-11-28T00:34:06;4.27;;;3.40;;
10904;SDS011;5505;51.450;9.254;2022-11-28T00:36:54;4.27;;;3.80;;
10904;SDS011;5505;51.450;9.254;2022-11-28T00:39:41;3.70;;;3.30;;
10904;SDS011;5505;51.450;9.254;2022-11-28T00:42:28;3.83;;;3.53;;
10904;SDS011;5505;51.450;9.254;2022-11-28T00:45:15;4.50;;;3.33;;
10904;SDS011;5505;51.450;9.254;2022-11-28T00:48:01;4.57;;;3.43;;
10904;SDS011;5505;51.450;9.254;2022-11-28T00:50:48;5.17;;;3.70;;
10904;SDS011;5505;51.450;9.254;2022-11-28T00:53:37;3.50;;;3.20;;
10904;SDS011;5505;51.450;9.254;2022-11-28T00:56:27;3.83;;;2.83;;
10904;SDS011;5505;51.450;9.254;2022-11-28T00:59:16;4.83;;;3.33;;
10904;SDS011;5505;51.450;9.254;2022-11-28T01:02:02;5.60;;;3.50;;
10904;SDS011;5505;51.450;9.254;2022-11-28T01:04:49;5.03;;;3.60;;
10904;SDS011;5505;51.450;9.254;2022-11-28T01:07:36;4.10;;;3.70;;
10904;SDS011;5505;51.450;9.254;2022-11-28T01:10:27;3.93;;;3.53;;
10904;SDS011;5505;51.450;9.254;2022-11-28T01:13:14;4.17;;;3.73;;
10904;SDS011;5505;51.450;9.254;2022-11-28T01:16:01;4.53;;;3.80;;
10904;SDS011;5505;51.450;9.254;2022-11-28T01:18:48;4.17;;;3.77;;
10904;SDS011;5505;51.450;9.254;2022-11-28T01:21:34;5.10;;;3.80;;
10904;SDS011;5505;51.450;9.254;2022-11-28T01:24:22;5.00;;;4.37;;
10904;SDS011;5505;51.450;9.254;2022-11-28T01:27:10;4.63;;;4.00;;
10904;SDS011;5505;51.450;9.254;2022-11-28T01:29:57;4.57;;;4.17;;
10904;SDS011;5505;51.450;9.254;2022-11-28T01:32:43;5.23;;;3.93;;
10904;SDS011;5505;51.450;9.254;2022-11-28T01:35:31;4.60;;;4.00;;
10904;SDS011;5505;51.450;9.254;2022-11-28T01:38:18;4.90;;;4.27;;
10904;SDS011;5505;51.450;9.254;2022-11-28T01:41:05;6.83;;;3.73;;
10904;SDS011;5505;51.450;9.254;2022-11-28T01:43:58;5.50;;;4.17;;
10904;SDS011;5505;51.450;9.254;2022-11-28T01:46:47;4.03;;;3.63;;
10904;SDS011;5505;51.450;9.254;2022-11-28T01:49:34;4.33;;;3.80;;
10904;SDS011;5505;51.450;9.254;2022-11-28T01:52:22;5.03;;;3.90;;
10904;SDS011;5505;51.450;9.254;2022-11-28T01:55:10;5.53;;;3.70;;
10904;SDS011;5505;51.450;9.254;2022-11-28T01:58:01;4.50;;;4.10;;
10904;SDS011;5505;51.450;9.254;2022-11-28T02:00:50;4.13;;;3.73;;
10904;SDS011;5505;51.450;9.254;2022-11-28T02:03:38;4.23;;;3.80;;
10904;SDS011;5505;51.450;9.254;2022-11-28T02:06:28;5.93;;;4.20;;
10904;SDS011;5505;51.450;9.254;2022-11-28T02:09:17;5.63;;;4.00;;
10904;SDS011;5505;51.450;9.254;2022-11-28T02:12:14;4.60;;;4.17;;
10904;SDS011;5505;51.450;9.254;2022-11-28T02:15:15;4.23;;;3.80;;
10904;SDS011;5505;51.450;9.254;2022-11-28T02:18:15;4.93;;;4.43;;
10904;SDS011;5505;51.450;9.254;2022-11-28T02:24:31;4.20;;;3.80;;
10904;SDS011;5505;51.450;9.254;2022-11-28T02:28:10;4.70;;;4.10;;
10904;SDS011;5505;51.450;9.254;2022-11-28T02:31:31;5.10;;;4.60;;
10904;SDS011;5505;51.450;9.254;2022-11-28T02:34:45;5.50;;;4.70;;
10904;SDS011;5505;51.450;9.254;2022-11-28T02:37:42;5.40;;;4.30;;
10904;SDS011;5505;51.450;9.254;2022-11-28T02:40:37;4.40;;;4.00;;
10904;SDS011;5505;51.450;9.254;2022-11-28T02:43:30;6.17;;;4.30;;
10904;SDS011;5505;51.450;9.254;2022-11-28T02:46:26;5.30;;;4.50;;
10904;SDS011;5505;51.450;9.254;2022-11-28T02:49:19;4.93;;;4.40;;
10904;SDS011;5505;51.450;9.254;2022-11-28T02:52:12;5.80;;;4.57;;
10904;SDS011;5505;51.450;9.254;2022-11-28T02:55:02;4.73;;;4.23;;
10904;SDS011;5505;51.450;9.254;2022-11-28T02:57:51;5.50;;;4.67;;
10904;SDS011;5505;51.450;9.254;2022-11-28T03:00:40;4.80;;;4.30;;
10904;SDS011;5505;51.450;9.254;2022-11-28T03:03:44;4.63;;;4.00;;
10904;SDS011;5505;51.450;9.254;2022-11-28T03:06:45;5.27;;;4.00;;
10904;SDS011;5505;51.450;9.254;2022-11-28T03:09:43;5.57;;;4.50;;
10904;SDS011;5505;51.450;9.254;2022-11-28T03:12:44;4.80;;;4.23;;
10904;SDS011;5505;51.450;9.254;2022-11-28T03:15:38;4.97;;;4.30;;
10904;SDS011;5505;51.450;9.254;2022-11-28T03:18:33;4.33;;;3.93;;
10904;SDS011;5505;51.450;9.254;2022-11-28T03:21:24;5.83;;;4.70;;
10904;SDS011;5505;51.450;9.254;2022-11-28T03:24:23;5.73;;;4.43;;
10904;SDS011;5505;51.450;9.254;2022-11-28T03:27:13;4.60;;;4.20;;
10904;SDS011;5505;51.450;9.254;2022-11-28T03:30:05;5.00;;;4.50;;
10904;SDS011;5505;51.450;9.254;2022-11-28T03:32:58;5.37;;;4.83;;
10904;SDS011;5505;51.450;9.254;2022-11-28T03:35:48;5.13;;;4.43;;
10904;SDS011;5505;51.450;9.254;2022-11-28T03:38:39;4.43;;;4.03;;
10904;SDS011;5505;51.450;9.254;2022-11-28T03:41:31;5.17;;;4.20;;
10904;SDS011;5505;51.450;9.254;2022-11-28T03:44:22;4.60;;;4.20;;
10904;SDS011;5505;51.450;9.254;2022-11-28T03:47:13;7.10;;;4.30;;
10904;SDS011;5505;51.450;9.254;2022-11-28T03:50:01;4.80;;;4.20;;
10904;SDS011;5505;51.450;9.254;2022-11-28T03:52:53;4.97;;;4.00;;
10904;SDS011;5505;51.450;9.254;2022-11-28T03:55:45;4.50;;;4.10;;
10904;SDS011;5505;51.450;9.254;2022-11-28T03:58:38;5.53;;;4.10;;
10904;SDS011;5505;51.450;9.254;2022-11-28T04:01:35;4.77;;;3.83;;
10904;SDS011;5505;51.450;9.254;2022-11-28T04:04:30;4.77;;;4.07;;
10904;SDS011;5505;51.450;9.254;2022-11-28T04:07:26;5.37;;;4.60;;
10904;SDS011;5505;51.450;9.254;2022-11-28T04:10:19;5.20;;;4.37;;
10904;SDS011;5505;51.450;9.254;2022-11-28T04:13:09;6.03;;;4.30;;
10904;SDS011;5505;51.450;9.254;2022-11-28T04:16:07;4.83;;;4.30;;
10904;SDS011;5505;51.450;9.254;2022-11-28T04:18:58;5.13;;;4.13;;
10904;SDS011;5505;51.450;9.254;2022-11-28T04:21:52;4.33;;;3.90;;
10904;SDS011;5505;51.450;9.254;2022-11-28T04:24:43;4.40;;;4.00;;
10904;SDS011;5505;51.450;9.254;2022-11-28T04:27:34;6.23;;;4.40;;
10904;SDS011;5505;51.450;9.254;2022-11-28T04:30:23;5.10;;;4.07;;
10904;SDS011;5505;51.450;9.254;2022-11-28T04:33:12;6.43;;;4.43;;
10904;SDS011;5505;51.450;9.254;2022-11-28T04:36:01;5.00;;;4.50;;
10904;SDS011;5505;51.450;9.254;2022-11-28T04:38:50;5.87;;;4.70;;
10904;SDS011;5505;51.450;9.254;2022-11-28T04:41:41;6.30;;;4.73;;
10904;SDS011;5505;51.450;9.254;2022-11-28T04:44:34;6.53;;;4.70;;
10904;SDS011;5505;51.450;9.254;2022-11-28T04:47:25;5.03;;;4.30;;
10904;SDS011;5505;51.450;9.254;2022-11-28T04:50:13;4.87;;;4.37;;
10904;SDS011;5505;51.450;9.254;2022-11-28T04:53:02;4.60;;;4.00;;
10904;SDS011;5505;51.450;9.254;2022-11-28T04:55:56;5.43;;;4.40;;
10904;SDS011;5505;51.450;9.254;2022-11-28T04:58:47;5.63;;;4.57;;
10904;SDS011;5505;51.450;9.254;2022-11-28T05:01:36;4.60;;;4.20;;
10904;SDS011;5505;51.450;9.254;2022-11-28T05:04:25;5.27;;;3.70;;
10904;SDS011;5505;51.450;9.254;2022-11-28T05:07:13;5.40;;;4.17;;
10904;SDS011;5505;51.450;9.254;2022-11-28T05:10:00;5.40;;;4.10;;
10904;SDS011;5505;51.450;9.254;2022-11-28T05:12:47;4.87;;;4.23;;
10904;SDS011;5505;51.450;9.254;2022-11-28T05:15:34;4.47;;;3.83;;
10904;SDS011;5505;51.450;9.254;2022-11-28T05:18:21;5.10;;;4.40;;
10904;SDS011;5505;51.450;9.254;2022-11-28T05:21:08;6.77;;;5.10;;
10904;SDS011;5505;51.450;9.254;2022-11-28T05:23:56;5.60;;;5.10;;
10904;SDS011;5505;51.450;9.254;2022-11-28T05:26:43;5.60;;;4.97;;
10904;SDS011;5505;51.450;9.254;2022-11-28T05:29:30;5.03;;;4.53;;
10904;SDS011;5505;51.450;9.254;2022-11-28T05:32:16;5.27;;;4.37;;
10904;SDS011;5505;51.450;9.254;2022-11-28T05:35:04;7.13;;;5.07;;
10904;SDS011;5505;51.450;9.254;2022-11-28T05:37:51;4.83;;;4.33;;
10904;SDS011;5505;51.450;9.254;2022-11-28T05:40:39;5.00;;;4.50;;
10904;SDS011;5505;51.450;9.254;2022-11-28T05:43:28;5.80;;;5.20;;
10904;SDS011;5505;51.450;9.254;2022-11-28T05:46:15;4.97;;;4.33;;
10904;SDS011;5505;51.450;9.254;2022-11-28T05:49:03;7.37;;;5.67;;
10904;SDS011;5505;51.450;9.254;2022-11-28T05:51:49;5.80;;;4.70;;
10904;SDS011;5505;51.450;9.254;2022-11-28T05:54:36;21.70;;;13.47;;
10904;SDS011;5505;51.450;9.254;2022-11-28T05:57:24;13.43;;;9.20;;
10904;SDS011;5505;51.450;9.254;2022-11-28T06:00:14;7.33;;;6.43;;
10904;SDS011;5505;51.450;9.254;2022-11-28T06:03:01;5.87;;;4.90;;
10904;SDS011;5505;51.450;9.254;2022-11-28T06:05:52;7.07;;;4.97;;
10904;SDS011;5505;51.450;9.254;2022-11-28T06:08:39;6.50;;;5.30;;
10904;SDS011;5505;51.450;9.254;2022-11-28T06:11:27;6.73;;;5.30;;
10904;SDS011;5505;51.450;9.254;2022-11-28T06:14:16;5.73;;;5.17;;
10904;SDS011;5505;51.450;9.254;2022-11-28T06:17:03;6.87;;;5.93;;
10904;SDS011;5505;51.450;9.254;2022-11-28T06:19:50;5.70;;;4.93;;
10904;SDS011;5505;51.450;9.254;2022-11-28T06:22:40;6.47;;;5.77;;
10904;SDS011;5505;51.450;9.254;2022-11-28T06:25:27;5.97;;;5.27;;
10904;SDS011;5505;51.450;9.254;2022-11-28T06:28:14;5.97;;;5.17;;
10904;SDS011;5505;51.450;9.254;2022-11-28T06:31:02;6.47;;;5.30;;
10904;SDS011;5505;51.450;9.254;2022-11-28T06:33:50;7.33;;;5.57;;
10904;SDS011;5505;51.450;9.254;2022-11-28T06:36:37;7.47;;;5.50;;
10904;SDS011;5505;51.450;9.254;2022-11-28T06:39:26;5.30;;;4.80;;
10904;SDS011;5505;51.450;9.254;2022-11-28T06:42:13;6.50;;;5.10;;
10904;SDS011;5505;51.450;9.254;2022-11-28T06:45:00;5.90;;;5.10;;
10904;SDS011;5505;51.450;9.254;2022-11-28T06:47:48;6.03;;;5.33;;
10904;SDS011;5505;51.450;9.254;2022-11-28T06:50:35;6.50;;;5.23;;
10904;SDS011;5505;51.450;9.254;2022-11-28T06:53:22;7.37;;;5.33;;
10904;SDS011;5505;51.450;9.254;2022-11-28T06:56:10;6.20;;;5.37;;
10904;SDS011;5505;51.450;9.254;2022-11-28T06:58:59;6.27;;;4.70;;
10904;SDS011;5505;51.450;9.254;2022-11-28T07:01:46;5.60;;;5.10;;
10904;SDS011;5505;51.450;9.254;2022-11-28T07:04:34;6.33;;;5.23;;
10904;SDS011;5505;51.450;9.254;2022-11-28T07:07:21;7.47;;;5.20;;
10904;SDS011;5505;51.450;9.254;2022-11-28T07:10:08;6.23;;;5.40;;
10904;SDS011;5505;51.450;9.254;2022-11-28T07:12:57;6.60;;;4.90;;
10904;SDS011;5505;51.450;9.254;2022-11-28T07:15:46;7.17;;;4.97;;
10904;SDS011;5505;51.450;9.254;2022-11-28T07:18:34;6.43;;;4.83;;
10904;SDS011;5505;51.450;9.254;2022-11-28T07:21:22;6.43;;;5.03;;
10904;SDS011;5505;51.450;9.254;2022-11-28T07:24:09;5.20;;;4.70;;
10904;SDS011;5505;51.450;9.254;2022-11-28T07:26:56;12.87;;;9.30;;
10904;SDS011;5505;51.450;9.254;2022-11-28T07:29:43;7.53;;;6.13;;
10904;SDS011;5505;51.450;9.254;2022-11-28T07:32:30;5.70;;;5.10;;
10904;SDS011;5505;51.450;9.254;2022-11-28T07:35:17;6.13;;;5.53;;
10904;SDS011;5505;51.450;9.254;2022-11-28T07:38:05;7.33;;;5.57;;
10904;SDS011;5505;51.450;9.254;2022-11-28T07:40:52;7.17;;;5.67;;
10904;SDS011;5505;51.450;9.254;2022-11-28T07:43:39;6.40;;;5.50;;
10904;SDS011;5505;51.450;9.254;2022-11-28T07:46:28;6.47;;;5.33;;
10904;SDS011;5505;51.450;9.254;2022-11-28T07:49:16;6.80;;;5.43;;
10904;SDS011;5505;51.450;9.254;2022-11-28T07:52:05;6.23;;;5.63;;
10904;SDS011;5505;51.450;9.254;2022-11-28T07:54:53;7.20;;;5.17;;
10904;SDS011;5505;51.450;9.254;2022-11-28T07:57:41;6.47;;;5.50;;
10904;SDS011;5505;51.450;9.254;2022-11-28T08:00:28;6.00;;;5.30;;
10904;SDS011;5505;51.450;9.254;2022-11-28T08:03:15;6.37;;;5.43;;
10904;SDS011;5505;51.450;9.254;2022-11-28T08:06:01;6.37;;;5.77;;
10904;SDS011;5505;51.450;9.254;2022-11-28T08:08:49;6.17;;;5.30;;
10904;SDS011;5505;51.450;9.254;2022-11-28T08:11:38;7.13;;;6.20;;
10904;SDS011;5505;51.450;9.254;2022-11-28T08:14:25;8.20;;;6.07;;
10904;SDS011;5505;51.450;9.254;2022-11-28T08:17:12;8.47;;;5.83;;
10904;SDS011;5505;51.450;9.254;2022-11-28T08:19:59;6.80;;;6.10;;
10904;SDS011;5505;51.450;9.254;2022-11-28T08:22:46;7.20;;;6.03;;
10904;SDS011;5505;51.450;9.254;2022-11-28T08:25:33;9.03;;;6.13;;
10904;SDS011;5505;51.450;9.254;2022-11-28T08:28:21;9.40;;;6.40;;
10904;SDS011;5505;51.450;9.254;2022-11-28T08:31:08;6.27;;;5.63;;
10904;SDS011;5505;51.450;9.254;2022-11-28T08:33:56;8.97;;;6.37;;
10904;SDS011;5505;51.450;9.254;2022-11-28T08:36:44;7.43;;;6.30;;
10904;SDS011;5505;51.450;9.254;2022-11-28T08:39:31;7.03;;;5.93;;
10904;SDS011;5505;51.450;9.254;2022-11-28T08:42:18;8.13;;;6.10;;
10904;SDS011;5505;51.450;9.254;2022-11-28T08:45:07;7.87;;;6.33;;
10904;SDS011;5505;51.450;9.254;2022-11-28T08:47:57;7.47;;;5.97;;
10904;SDS011;5505;51.450;9.254;2022-11-28T08:50:45;7.37;;;6.17;;
10904;SDS011;5505;51.450;9.254;2022-11-28T08:53:32;7.17;;;6.20;;
10904;SDS011;5505;51.450;9.254;2022-11-28T08:56:19;6.50;;;5.90;;
10904;SDS011;5505;51.450;9.254;2022-11-28T08:59:06;7.30;;;6.40;;
10904;SDS011;5505;51.450;9.254;2022-11-28T09:01:54;10.50;;;7.63;;
10904;SDS011;5505;51.450;9.254;2022-11-28T09:04:41;20.10;;;11.70;;
10904;SDS011;5505;51.450;9.254;2022-11-28T09:07:28;9.80;;;6.87;;
10904;SDS011;5505;51.450;9.254;2022-11-28T09:10:15;7.60;;;6.73;;
10904;SDS011;5505;51.450;9.254;2022-11-28T09:13:02;7.80;;;5.93;;
10904;SDS011;5505;51.450;9.254;2022-11-28T09:15:49;8.03;;;6.43;;
10904;SDS011;5505;51.450;9.254;2022-11-28T09:18:38;8.47;;;6.50;;
10904;SDS011;5505;51.450;9.254;2022-11-28T09:21:25;8.47;;;6.23;;
10904;SDS011;5505;51.450;9.254;2022-11-28T09:24:12;7.53;;;6.00;;
10904;SDS011;5505;51.450;9.254;2022-11-28T09:26:58;8.77;;;6.50;;
10904;SDS011;5505;51.450;9.254;2022-11-28T09:29:45;7.70;;;6.33;;
10904;SDS011;5505;51.450;9.254;2022-11-28T09:32:32;7.50;;;6.40;;
10904;SDS011;5505;51.450;9.254;2022-11-28T09:35:21;7.00;;;6.00;;
10904;SDS011;5505;51.450;9.254;2022-11-28T09:38:07;8.00;;;5.87;;
10904;SDS011;5505;51.450;9.254;2022-11-28T09:40:54;9.93;;;6.67;;
10904;SDS011;5505;51.450;9.254;2022-11-28T09:43:42;7.87;;;6.47;;
10904;SDS011;5505;51.450;9.254;2022-11-28T09:46:31;8.37;;;6.73;;
10904;SDS011;5505;51.450;9.254;2022-11-28T09:49:22;9.50;;;6.80;;
10904;SDS011;5505;51.450;9.254;2022-11-28T09:52:23;10.07;;;8.13;;
10904;SDS011;5505;51.450;9.254;2022-11-28T09:55:15;7.37;;;6.40;;
10904;SDS011;5505;51.450;9.254;2022-11-28T09:58:09;7.43;;;6.40;;
10904;SDS011;5505;51.450;9.254;2022-11-28T10:01:03;7.77;;;6.37;;
10904;SDS011;5505;51.450;9.254;2022-11-28T10:03:58;8.50;;;6.40;;
10904;SDS011;5505;51.450;9.254;2022-11-28T10:06:49;7.40;;;6.57;;
10904;SDS011;5505;51.450;9.254;2022-11-28T10:09:47;8.10;;;6.77;;
10904;SDS011;5505;51.450;9.254;2022-11-28T10:12:40;8.23;;;6.23;;
10904;SDS011;5505;51.450;9.254;2022-11-28T10:15:39;7.33;;;6.10;;
10904;SDS011;5505;51.450;9.254;2022-11-28T10:18:34;8.93;;;5.93;;
10904;SDS011;5505;51.450;9.254;2022-11-28T10:21:26;7.50;;;6.03;;
10904;SDS011;5505;51.450;9.254;2022-11-28T10:24:19;7.83;;;6.00;;
10904;SDS011;5505;51.450;9.254;2022-11-28T10:27:11;9.97;;;6.67;;
10904;SDS011;5505;51.450;9.254;2022-11-28T10:30:03;7.67;;;6.20;;
10904;SDS011;5505;51.450;9.254;2022-11-28T10:32:58;8.27;;;6.60;;
10904;SDS011;5505;51.450;9.254;2022-11-28T10:35:49;7.73;;;6.40;;
10904;SDS011;5505;51.450;9.254;2022-11-28T10:38:39;7.47;;;6.17;;
10904;SDS011;5505;51.450;9.254;2022-11-28T10:41:27;10.73;;;6.43;;
10904;SDS011;5505;51.450;9.254;2022-11-28T10:44:21;8.10;;;6.57;;
10904;SDS011;5505;51.450;9.254;2022-11-28T10:47:12;7.30;;;6.23;;
10904;SDS011;5505;51.450;9.254;2022-11-28T10:50:11;7.17;;;5.10;;
10904;SDS011;5505;51.450;9.254;2022-11-28T10:53:07;7.03;;;6.13;;
10904;SDS011;5505;51.450;9.254;2022-11-28T10:56:06;7.40;;;6.10;;
10904;SDS011;5505;51.450;9.254;2022-11-28T10:59:01;8.23;;;6.20;;
10904;SDS011;5505;51.450;9.254;2022-11-28T11:02:01;8.13;;;6.30;;
10904;SDS011;5505;51.450;9.254;2022-11-28T11:05:05;7.73;;;6.27;;
10904;SDS011;5505;51.450;9.254;2022-11-28T11:07:58;8.53;;;6.50;;
10904;SDS011;5505;51.450;9.254;2022-11-28T11:10:49;8.17;;;6.83;;
10904;SDS011;5505;51.450;9.254;2022-11-28T11:13:53;7.20;;;6.50;;
10904;SDS011;5505;51.450;9.254;2022-11-28T11:16:47;8.60;;;6.40;;
10904;SDS011;5505;51.450;9.254;2022-11-28T11:19:37;10.40;;;7.00;;
10904;SDS011;5505;51.450;9.254;2022-11-28T11:22:25;8.37;;;6.40;;
10904;SDS011;5505;51.450;9.254;2022-11-28T11:25:16;8.20;;;6.80;;
10904;SDS011;5505;51.450;9.254;2022-11-28T11:28:04;10.00;;;7.10;;
10904;SDS011;5505;51.450;9.254;2022-11-28T11:30:56;7.97;;;6.50;;
10904;SDS011;5505;51.450;9.254;2022-11-28T11:33:44;8.37;;;6.70;;
10904;SDS011;5505;51.450;9.254;2022-11-28T11:36:35;9.23;;;6.93;;
10904;SDS011;5505;51.450;9.254;2022-11-28T11:39:22;12.07;;;7.20;;
10904;SDS011;5505;51.450;9.254;2022-11-28T11:42:10;8.47;;;6.10;;
10904;SDS011;5505;51.450;9.254;2022-11-28T11:48:11;7.93;;;6.77;;
10904;SDS011;5505;51.450;9.254;2022-11-28T11:50:58;9.43;;;7.13;;
10904;SDS011;5505;51.450;9.254;2022-11-28T11:53:46;8.03;;;6.70;;
10904;SDS011;5505;51.450;9.254;2022-11-28T11:56:34;9.87;;;7.07;;
10904;SDS011;5505;51.450;9.254;2022-11-28T11:59:23;9.07;;;6.67;;
10904;SDS011;5505;51.450;9.254;2022-11-28T12:02:17;19.93;;;7.27;;
10904;SDS011;5505;51.450;9.254;2022-11-28T12:05:09;7.03;;;6.33;;
10904;SDS011;5505;51.450;9.254;2022-11-28T12:07:58;9.30;;;6.70;;
10904;SDS011;5505;51.450;9.254;2022-11-28T12:10:50;7.57;;;6.53;;
10904;SDS011;5505;51.450;9.254;2022-11-28T12:13:43;7.60;;;6.60;;
10904;SDS011;5505;51.450;9.254;2022-11-28T12:16:34;9.00;;;6.97;;
10904;SDS011;5505;51.450;9.254;2022-11-28T12:19:31;8.17;;;6.80;;
10904;SDS011;5505;51.450;9.254;2022-11-28T12:22:27;9.23;;;7.17;;
10904;SDS011;5505;51.450;9.254;2022-11-28T12:25:21;8.83;;;6.87;;
10904;SDS011;5505;51.450;9.254;2022-11-28T12:28:24;7.90;;;6.57;;
10904;SDS011;5505;51.450;9.254;2022-11-28T12:31:20;9.47;;;6.63;;
10904;SDS011;5505;51.450;9.254;2022-11-28T12:34:20;7.70;;;6.53;;
10904;SDS011;5505;51.450;9.254;2022-11-28T12:37:18;7.40;;;6.43;;
10904;SDS011;5505;51.450;9.254;2022-11-28T12:40:15;7.27;;;6.43;;
10904;SDS011;5505;51.450;9.254;2022-11-28T12:43:17;8.47;;;6.40;;
10904;SDS011;5505;51.450;9.254;2022-11-28T12:46:18;9.17;;;6.47;;
10904;SDS011;5505;51.450;9.254;2022-11-28T12:49:14;9.80;;;6.80;;
10904;SDS011;5505;51.450;9.254;2022-11-28T12:52:08;13.30;;;9.60;;
10904;SDS011;5505;51.450;9.254;2022-11-28T12:55:07;13.87;;;9.33;;
10904;SDS011;5505;51.450;9.254;2022-11-28T12:58:07;8.17;;;6.83;;
10904;SDS011;5505;51.450;9.254;2022-11-28T13:01:04;9.80;;;6.37;;
10904;SDS011;5505;51.450;9.254;2022-11-28T13:04:04;8.23;;;6.83;;
10904;SDS011;5505;51.450;9.254;2022-11-28T13:07:05;7.93;;;6.47;;
10904;SDS011;5505;51.450;9.254;2022-11-28T13:10:06;8.00;;;6.47;;
10904;SDS011;5505;51.450;9.254;2022-11-28T13:13:02;6.27;;;5.67;;
10904;SDS011;5505;51.450;9.254;2022-11-28T13:15:56;8.23;;;6.30;;
10904;SDS011;5505;51.450;9.254;2022-11-28T13:18:52;9.23;;;6.30;;
10904;SDS011;5505;51.450;9.254;2022-11-28T13:21:42;9.67;;;6.70;;
10904;SDS011;5505;51.450;9.254;2022-11-28T13:24:35;10.37;;;6.17;;
10904;SDS011;5505;51.450;9.254;2022-11-28T13:27:29;9.57;;;6.90;;
10904;SDS011;5505;51.450;9.254;2022-11-28T13:30:23;7.83;;;6.30;;
10904;SDS011;5505;51.450;9.254;2022-11-28T13:33:23;6.93;;;6.23;;
10904;SDS011;5505;51.450;9.254;2022-11-28T13:36:25;9.83;;;6.77;;
10904;SDS011;5505;51.450;9.254;2022-11-28T13:39:20;8.33;;;6.63;;
10904;SDS011;5505;51.450;9.254;2022-11-28T13:42:17;8.20;;;6.57;;
10904;SDS011;5505;51.450;9.254;2022-11-28T13:45:18;8.60;;;6.03;;
10904;SDS011;5505;51.450;9.254;2022-11-28T13:51:33;8.07;;;6.43;;
10904;SDS011;5505;51.450;9.254;2022-11-28T13:57:29;8.20;;;6.60;;
10904;SDS011;5505;51.450;9.254;2022-11-28T14:00:23;9.57;;;6.80;;
10904;SDS011;5505;51.450;9.254;2022-11-28T14:03:15;9.40;;;6.63;;
10904;SDS011;5505;51.450;9.254;2022-11-28T14:06:04;8.37;;;6.20;;
10904;SDS011;5505;51.450;9.254;2022-11-28T14:09:00;8.50;;;6.53;;
10904;SDS011;5505;51.450;9.254;2022-11-28T14:11:56;10.63;;;7.07;;
10904;SDS011;5505;51.450;9.254;2022-11-28T14:18:01;9.63;;;7.40;;
10904;SDS011;5505;51.450;9.254;2022-11-28T14:20:57;10.80;;;7.40;;
10904;SDS011;5505;51.450;9.254;2022-11-28T14:23:49;11.13;;;8.23;;
10904;SDS011;5505;51.450;9.254;2022-11-28T14:26:45;9.23;;;7.30;;
10904;SDS011;5505;51.450;9.254;2022-11-28T14:29:34;7.13;;;6.30;;
10904;SDS011;5505;51.450;9.254;2022-11-28T14:32:25;8.37;;;6.73;;
10904;SDS011;5505;51.450;9.254;2022-11-28T14:35:16;10.17;;;7.27;;
10904;SDS011;5505;51.450;9.254;2022-11-28T14:38:42;7.83;;;6.53;;
10904;SDS011;5505;51.450;9.254;2022-11-28T14:41:30;7.60;;;6.30;;
10904;SDS011;5505;51.450;9.254;2022-11-28T14:47:34;8.07;;;6.97;;
10904;SDS011;5505;51.450;9.254;2022-11-28T14:50:45;9.57;;;7.67;;
10904;SDS011;5505;51.450;9.254;2022-11-28T14:53:41;8.37;;;7.23;;
10904;SDS011;5505;51.450;9.254;2022-11-28T14:56:29;8.37;;;7.00;;
10904;SDS011;5505;51.450;9.254;2022-11-28T14:59:19;8.23;;;7.00;;
10904;SDS011;5505;51.450;9.254;2022-11-28T15:02:21;16.50;;;12.57;;
10904;SDS011;5505;51.450;9.254;2022-11-28T15:05:28;18.40;;;8.83;;
10904;SDS011;5505;51.450;9.254;2022-11-28T15:08:31;10.67;;;7.87;;
10904;SDS011;5505;51.450;9.254;2022-11-28T15:11:37;9.90;;;7.73;;
10904;SDS011;5505;51.450;9.254;2022-11-28T15:14:43;8.83;;;7.27;;
10904;SDS011;5505;51.450;9.254;2022-11-28T15:17:38;11.13;;;7.50;;
10904;SDS011;5505;51.450;9.254;2022-11-28T15:20:28;9.37;;;7.93;;
10904;SDS011;5505;51.450;9.254;2022-11-28T15:23:22;10.17;;;7.23;;
10904;SDS011;5505;51.450;9.254;2022-11-28T15:26:15;10.37;;;7.90;;
10904;SDS011;5505;51.450;9.254;2022-11-28T15:29:08;8.00;;;7.07;;
10904;SDS011;5505;51.450;9.254;2022-11-28T15:31:56;10.53;;;8.33;;
10904;SDS011;5505;51.450;9.254;2022-11-28T15:34:49;9.30;;;8.07;;
10904;SDS011;5505;51.450;9.254;2022-11-28T15:37:38;11.10;;;8.30;;
10904;SDS011;5505;51.450;9.254;2022-11-28T15:40:33;10.40;;;8.77;;
10904;SDS011;5505;51.450;9.254;2022-11-28T15:43:21;11.27;;;8.90;;
10904;SDS011;5505;51.450;9.254;2022-11-28T15:46:11;10.07;;;8.30;;
10904;SDS011;5505;51.450;9.254;2022-11-28T15:49:03;12.07;;;8.60;;
10904;SDS011;5505;51.450;9.254;2022-11-28T15:51:53;10.43;;;8.47;;
10904;SDS011;5505;51.450;9.254;2022-11-28T15:54:43;11.67;;;8.20;;
10904;SDS011;5505;51.450;9.254;2022-11-28T15:57:35;11.80;;;8.70;;
10904;SDS011;5505;51.450;9.254;2022-11-28T16:00:22;13.63;;;8.90;;
10904;SDS011;5505;51.450;9.254;2022-11-28T16:05:59;8.90;;;7.47;;
10904;SDS011;5505;51.450;9.254;2022-11-28T16:08:51;9.87;;;8.07;;
10904;SDS011;5505;51.450;9.254;2022-11-28T16:11:40;12.23;;;8.13;;
10904;SDS011;5505;51.450;9.254;2022-11-28T16:14:29;9.13;;;7.77;;
10904;SDS011;5505;51.450;9.254;2022-11-28T16:17:18;10.73;;;7.93;;
10904;SDS011;5505;51.450;9.254;2022-11-28T16:20:16;10.87;;;8.17;;
10904;SDS011;5505;51.450;9.254;2022-11-28T16:23:09;11.37;;;8.30;;
10904;SDS011;5505;51.450;9.254;2022-11-28T16:26:05;9.70;;;7.80;;
10904;SDS011;5505;51.450;9.254;2022-11-28T16:29:10;10.73;;;7.67;;
10904;SDS011;5505;51.450;9.254;2022-11-28T16:32:06;9.40;;;7.80;;
10904;SDS011;5505;51.450;9.254;2022-11-28T16:34:54;11.13;;;8.10;;
10904;SDS011;5505;51.450;9.254;2022-11-28T16:37:44;11.97;;;10.30;;
10904;SDS011;5505;51.450;9.254;2022-11-28T16:40:31;13.77;;;9.90;;
10904;SDS011;5505;51.450;9.254;2022-11-28T16:43:20;10.90;;;9.20;;
10904;SDS011;5505;51.450;9.254;2022-11-28T16:46:16;14.83;;;9.80;;
10904;SDS011;5505;51.450;9.254;2022-11-28T16:49:05;12.47;;;8.73;;
10904;SDS011;5505;51.450;9.254;2022-11-28T16:55:38;12.03;;;9.63;;
10904;SDS011;5505;51.450;9.254;2022-11-28T16:58:27;10.87;;;8.70;;
10904;SDS011;5505;51.450;9.254;2022-11-28T17:01:15;10.60;;;8.50;;
10904;SDS011;5505;51.450;9.254;2022-11-28T17:04:02;13.97;;;9.90;;
10904;SDS011;5505;51.450;9.254;2022-11-28T17:06:50;13.97;;;9.53;;
10904;SDS011;5505;51.450;9.254;2022-11-28T17:09:39;14.13;;;9.83;;
10904;SDS011;5505;51.450;9.254;2022-11-28T17:12:26;13.77;;;10.13;;
10904;SDS011;5505;51.450;9.254;2022-11-28T17:15:16;17.13;;;9.77;;
10904;SDS011;5505;51.450;9.254;2022-11-28T17:18:04;13.03;;;9.50;;
10904;SDS011;5505;51.450;9.254;2022-11-28T17:20:51;11.53;;;8.90;;
10904;SDS011;5505;51.450;9.254;2022-11-28T17:23:38;12.50;;;10.17;;
10904;SDS011;5505;51.450;9.254;2022-11-28T17:26:25;12.67;;;9.73;;
10904;SDS011;5505;51.450;9.254;2022-11-28T17:29:13;24.37;;;15.20;;
10904;SDS011;5505;51.450;9.254;2022-11-28T17:32:04;23.47;;;14.87;;
10904;SDS011;5505;51.450;9.254;2022-11-28T17:34:51;17.93;;;13.00;;
10904;SDS011;5505;51.450;9.254;2022-11-28T17:37:38;12.27;;;10.17;;
10904;SDS011;5505;51.450;9.254;2022-11-28T17:40:25;12.10;;;9.40;;
10904;SDS011;5505;51.450;9.254;2022-11-28T17:43:18;14.50;;;11.30;;
10904;SDS011;5505;51.450;9.254;2022-11-28T17:46:06;12.50;;;9.87;;
10904;SDS011;5505;51.450;9.254;2022-11-28T17:48:54;11.10;;;9.70;;